Pagrindinis puslapis
METAR-TAF:

METAR-TAF

Oro uostai :

Aigen im Ennstal, Austrija

platuma: 47-32N, ilguma: 014-08E, Aukštis: 638 m

METAR: trūkstamas

Laikas: 21:21 (20:21 UTC)

Prognozė

Ataskaita buvo paskelbta 3 valandos ir 6 minutes, ne 17:15 UTC
Prognozė galioja nuo 02 metu 18 UTC su 03 metu 03 UTC
Vėjas 3 kt nuo kintamojo kryptimis
Matomumas 10 km arba daugiau
Giedras dangus

TAF: LOXA 021715Z 0218/0303 VRB03KT 9999 SKC

Orai ataskaitas ir orų prognozės (METAR, TAF).

turimą stotys yra geltonos ir raudonos taškus žemėlapyje.

Perkelti pele per norėdami pamatyti stoties vardą.

Tada spustelėkite, norėdami matyti oro stebėjimo ir prognozės.

Norėdami pakeisti žemėlapį: spustelėkite ant žalios mygtukų su juodo kryžiaus žemyn,; žalią mygtuką su brūkšneliu, jei norite nutolinti; arba žalių rodyklių gretimoms žemėlapius.


METAR-TAF: